sensor_id;sensor_type;location;lat;lon;timestamp;temperature;humidity
13616;DHT22;6879;51.368;6.782;2022-12-04T00:00:31;2.10;99.90
13616;DHT22;6879;51.368;6.782;2022-12-04T00:03:00;2.10;99.90
13616;DHT22;6879;51.368;6.782;2022-12-04T00:05:32;2.20;99.90
13616;DHT22;6879;51.368;6.782;2022-12-04T00:08:01;2.10;99.90
13616;DHT22;6879;51.368;6.782;2022-12-04T00:10:32;2.20;99.90
13616;DHT22;6879;51.368;6.782;2022-12-04T00:13:02;2.20;99.90
13616;DHT22;6879;51.368;6.782;2022-12-04T00:15:31;2.30;99.90
13616;DHT22;6879;51.368;6.782;2022-12-04T00:18:00;2.20;99.90
13616;DHT22;6879;51.368;6.782;2022-12-04T00:20:29;2.20;99.90
13616;DHT22;6879;51.368;6.782;2022-12-04T00:23:01;2.10;99.90
13616;DHT22;6879;51.368;6.782;2022-12-04T00:25:30;2.10;99.90
13616;DHT22;6879;51.368;6.782;2022-12-04T00:28:07;2.10;99.90
13616;DHT22;6879;51.368;6.782;2022-12-04T00:30:39;2.10;99.90
13616;DHT22;6879;51.368;6.782;2022-12-04T00:33:09;2.10;99.90
13616;DHT22;6879;51.368;6.782;2022-12-04T00:35:39;2.20;99.90
13616;DHT22;6879;51.368;6.782;2022-12-04T00:38:10;2.20;99.90
13616;DHT22;6879;51.368;6.782;2022-12-04T00:40:39;2.10;99.90
13616;DHT22;6879;51.368;6.782;2022-12-04T00:43:08;2.10;99.90
13616;DHT22;6879;51.368;6.782;2022-12-04T00:45:37;2.20;99.90
13616;DHT22;6879;51.368;6.782;2022-12-04T00:48:07;2.20;99.90
13616;DHT22;6879;51.368;6.782;2022-12-04T00:50:38;2.10;99.90
13616;DHT22;6879;51.368;6.782;2022-12-04T00:53:06;2.10;99.90
13616;DHT22;6879;51.368;6.782;2022-12-04T00:55:39;2.10;99.90
13616;DHT22;6879;51.368;6.782;2022-12-04T00:58:08;2.00;99.90
13616;DHT22;6879;51.368;6.782;2022-12-04T01:00:39;2.00;99.90
13616;DHT22;6879;51.368;6.782;2022-12-04T01:03:09;2.10;99.90
13616;DHT22;6879;51.368;6.782;2022-12-04T01:05:40;2.10;99.90
13616;DHT22;6879;51.368;6.782;2022-12-04T01:08:09;2.00;99.90
13616;DHT22;6879;51.368;6.782;2022-12-04T01:10:41;2.10;99.90
13616;DHT22;6879;51.368;6.782;2022-12-04T01:13:10;2.00;99.90
13616;DHT22;6879;51.368;6.782;2022-12-04T01:15:39;2.00;99.90
13616;DHT22;6879;51.368;6.782;2022-12-04T01:18:10;2.10;99.90
13616;DHT22;6879;51.368;6.782;2022-12-04T01:20:46;2.10;99.90
13616;DHT22;6879;51.368;6.782;2022-12-04T01:23:15;2.10;99.90
13616;DHT22;6879;51.368;6.782;2022-12-04T01:25:54;2.10;99.90
13616;DHT22;6879;51.368;6.782;2022-12-04T01:28:32;2.10;99.90
13616;DHT22;6879;51.368;6.782;2022-12-04T01:31:03;2.10;99.90
13616;DHT22;6879;51.368;6.782;2022-12-04T01:33:34;2.10;99.90
13616;DHT22;6879;51.368;6.782;2022-12-04T01:36:06;2.10;99.90
13616;DHT22;6879;51.368;6.782;2022-12-04T01:38:36;2.10;99.90
13616;DHT22;6879;51.368;6.782;2022-12-04T01:41:07;2.20;99.90
13616;DHT22;6879;51.368;6.782;2022-12-04T01:43:37;2.10;99.90
13616;DHT22;6879;51.368;6.782;2022-12-04T01:46:07;2.10;99.90
13616;DHT22;6879;51.368;6.782;2022-12-04T01:48:40;2.10;99.90
13616;DHT22;6879;51.368;6.782;2022-12-04T01:51:15;2.10;99.90
13616;DHT22;6879;51.368;6.782;2022-12-04T01:53:48;2.10;99.90
13616;DHT22;6879;51.368;6.782;2022-12-04T01:56:23;2.10;99.90
13616;DHT22;6879;51.368;6.782;2022-12-04T01:58:56;2.10;99.90
13616;DHT22;6879;51.368;6.782;2022-12-04T02:01:26;2.10;99.90
13616;DHT22;6879;51.368;6.782;2022-12-04T02:03:58;2.20;99.90
13616;DHT22;6879;51.368;6.782;2022-12-04T02:06:28;2.20;99.90
13616;DHT22;6879;51.368;6.782;2022-12-04T02:08:58;2.20;99.90
13616;DHT22;6879;51.368;6.782;2022-12-04T02:11:35;2.10;99.90
13616;DHT22;6879;51.368;6.782;2022-12-04T02:14:11;2.10;99.90
13616;DHT22;6879;51.368;6.782;2022-12-04T02:16:47;2.10;99.90
13616;DHT22;6879;51.368;6.782;2022-12-04T02:19:40;2.20;99.90
13616;DHT22;6879;51.368;6.782;2022-12-04T02:22:20;2.20;99.90
13616;DHT22;6879;51.368;6.782;2022-12-04T02:24:56;2.20;99.90
13616;DHT22;6879;51.368;6.782;2022-12-04T02:30:28;2.10;99.90
13616;DHT22;6879;51.368;6.782;2022-12-04T02:33:02;2.10;99.90
13616;DHT22;6879;51.368;6.782;2022-12-04T02:35:37;2.10;99.90
13616;DHT22;6879;51.368;6.782;2022-12-04T02:38:13;2.00;99.90
13616;DHT22;6879;51.368;6.782;2022-12-04T02:40:50;2.00;99.90
13616;DHT22;6879;51.368;6.782;2022-12-04T02:43:24;2.10;99.90
13616;DHT22;6879;51.368;6.782;2022-12-04T02:46:01;2.10;99.90
13616;DHT22;6879;51.368;6.782;2022-12-04T02:48:34;2.10;99.90
13616;DHT22;6879;51.368;6.782;2022-12-04T02:51:06;2.10;99.90
13616;DHT22;6879;51.368;6.782;2022-12-04T02:53:37;2.00;99.90
13616;DHT22;6879;51.368;6.782;2022-12-04T02:56:10;2.00;99.90
13616;DHT22;6879;51.368;6.782;2022-12-04T02:58:44;1.90;99.90
13616;DHT22;6879;51.368;6.782;2022-12-04T03:01:21;1.90;99.90
13616;DHT22;6879;51.368;6.782;2022-12-04T03:03:54;1.90;99.90
13616;DHT22;6879;51.368;6.782;2022-12-04T03:06:28;1.90;99.90
13616;DHT22;6879;51.368;6.782;2022-12-04T03:09:02;1.90;99.90
13616;DHT22;6879;51.368;6.782;2022-12-04T03:11:34;1.90;99.90
13616;DHT22;6879;51.368;6.782;2022-12-04T03:14:10;1.90;99.90
13616;DHT22;6879;51.368;6.782;2022-12-04T03:16:43;1.90;99.90
13616;DHT22;6879;51.368;6.782;2022-12-04T03:19:20;1.90;99.90
13616;DHT22;6879;51.368;6.782;2022-12-04T03:21:55;1.80;99.90
13616;DHT22;6879;51.368;6.782;2022-12-04T03:24:30;1.80;99.90
13616;DHT22;6879;51.368;6.782;2022-12-04T03:27:05;1.80;99.90
13616;DHT22;6879;51.368;6.782;2022-12-04T03:29:40;1.80;99.90
13616;DHT22;6879;51.368;6.782;2022-12-04T03:32:15;1.70;99.90
13616;DHT22;6879;51.368;6.782;2022-12-04T03:34:53;1.70;99.90
13616;DHT22;6879;51.368;6.782;2022-12-04T03:37:28;1.80;99.90
13616;DHT22;6879;51.368;6.782;2022-12-04T03:40:04;1.80;99.90
13616;DHT22;6879;51.368;6.782;2022-12-04T03:42:38;1.80;99.90
13616;DHT22;6879;51.368;6.782;2022-12-04T03:45:15;1.80;99.90
13616;DHT22;6879;51.368;6.782;2022-12-04T03:47:52;1.70;99.90
13616;DHT22;6879;51.368;6.782;2022-12-04T03:56:50;1.70;99.90
13616;DHT22;6879;51.368;6.782;2022-12-04T03:59:23;1.60;99.90
13616;DHT22;6879;51.368;6.782;2022-12-04T04:01:56;1.50;99.90
13616;DHT22;6879;51.368;6.782;2022-12-04T04:04:34;1.40;99.90
13616;DHT22;6879;51.368;6.782;2022-12-04T04:07:08;1.40;99.90
13616;DHT22;6879;51.368;6.782;2022-12-04T04:09:41;1.40;99.90
13616;DHT22;6879;51.368;6.782;2022-12-04T04:12:15;1.40;99.90
13616;DHT22;6879;51.368;6.782;2022-12-04T04:14:50;1.40;99.90
13616;DHT22;6879;51.368;6.782;2022-12-04T04:17:42;1.40;99.90
13616;DHT22;6879;51.368;6.782;2022-12-04T04:20:36;1.50;99.90
13616;DHT22;6879;51.368;6.782;2022-12-04T04:23:24;1.40;99.90
13616;DHT22;6879;51.368;6.782;2022-12-04T04:26:15;1.40;99.90
13616;DHT22;6879;51.368;6.782;2022-12-04T04:28:45;1.40;99.90
13616;DHT22;6879;51.368;6.782;2022-12-04T04:31:19;1.50;99.90
13616;DHT22;6879;51.368;6.782;2022-12-04T04:33:58;1.40;99.90
13616;DHT22;6879;51.368;6.782;2022-12-04T04:36:38;1.30;99.90
13616;DHT22;6879;51.368;6.782;2022-12-04T04:39:20;1.30;99.90
13616;DHT22;6879;51.368;6.782;2022-12-04T04:41:56;1.30;99.90
13616;DHT22;6879;51.368;6.782;2022-12-04T04:44:34;1.30;99.90
13616;DHT22;6879;51.368;6.782;2022-12-04T04:47:09;1.20;99.90
13616;DHT22;6879;51.368;6.782;2022-12-04T04:49:41;1.20;99.90
13616;DHT22;6879;51.368;6.782;2022-12-04T04:52:14;1.20;99.90
13616;DHT22;6879;51.368;6.782;2022-12-04T04:54:46;1.20;99.90
13616;DHT22;6879;51.368;6.782;2022-12-04T04:57:25;1.20;99.90
13616;DHT22;6879;51.368;6.782;2022-12-04T04:59:55;1.30;99.90
13616;DHT22;6879;51.368;6.782;2022-12-04T05:02:25;1.30;99.90
13616;DHT22;6879;51.368;6.782;2022-12-04T05:05:00;1.20;99.90
13616;DHT22;6879;51.368;6.782;2022-12-04T05:07:33;1.20;99.90
13616;DHT22;6879;51.368;6.782;2022-12-04T05:10:03;1.20;99.90
13616;DHT22;6879;51.368;6.782;2022-12-04T05:12:34;1.20;99.90
13616;DHT22;6879;51.368;6.782;2022-12-04T05:15:05;1.30;99.90
13616;DHT22;6879;51.368;6.782;2022-12-04T05:17:35;1.30;99.90
13616;DHT22;6879;51.368;6.782;2022-12-04T05:20:07;1.30;99.90
13616;DHT22;6879;51.368;6.782;2022-12-04T05:22:39;1.30;99.90
13616;DHT22;6879;51.368;6.782;2022-12-04T05:25:10;1.30;99.90
13616;DHT22;6879;51.368;6.782;2022-12-04T05:27:39;1.20;99.90
13616;DHT22;6879;51.368;6.782;2022-12-04T05:30:09;1.30;99.90
13616;DHT22;6879;51.368;6.782;2022-12-04T05:32:39;1.30;99.90
13616;DHT22;6879;51.368;6.782;2022-12-04T05:35:08;1.20;99.90
13616;DHT22;6879;51.368;6.782;2022-12-04T05:37:41;1.30;99.90
13616;DHT22;6879;51.368;6.782;2022-12-04T05:40:15;1.20;99.90
13616;DHT22;6879;51.368;6.782;2022-12-04T05:42:49;1.20;99.90
13616;DHT22;6879;51.368;6.782;2022-12-04T05:45:25;1.20;99.90
13616;DHT22;6879;51.368;6.782;2022-12-04T05:47:57;1.30;99.90
13616;DHT22;6879;51.368;6.782;2022-12-04T05:50:28;1.40;99.90
13616;DHT22;6879;51.368;6.782;2022-12-04T05:53:04;1.40;99.90
13616;DHT22;6879;51.368;6.782;2022-12-04T05:55:33;1.40;99.90
13616;DHT22;6879;51.368;6.782;2022-12-04T05:58:03;1.40;99.90
13616;DHT22;6879;51.368;6.782;2022-12-04T06:00:37;1.40;99.90
13616;DHT22;6879;51.368;6.782;2022-12-04T06:03:09;1.50;99.90
13616;DHT22;6879;51.368;6.782;2022-12-04T06:05:39;1.40;99.90
13616;DHT22;6879;51.368;6.782;2022-12-04T06:08:10;1.50;99.90
13616;DHT22;6879;51.368;6.782;2022-12-04T06:10:40;1.50;99.90
13616;DHT22;6879;51.368;6.782;2022-12-04T06:13:13;1.40;99.90
13616;DHT22;6879;51.368;6.782;2022-12-04T06:15:43;1.40;99.90
13616;DHT22;6879;51.368;6.782;2022-12-04T06:18:15;1.40;99.90
13616;DHT22;6879;51.368;6.782;2022-12-04T06:20:45;1.40;99.90
13616;DHT22;6879;51.368;6.782;2022-12-04T06:23:18;1.30;99.90
13616;DHT22;6879;51.368;6.782;2022-12-04T06:25:48;1.40;99.90
13616;DHT22;6879;51.368;6.782;2022-12-04T06:28:17;1.40;99.90
13616;DHT22;6879;51.368;6.782;2022-12-04T06:30:46;1.50;99.90
13616;DHT22;6879;51.368;6.782;2022-12-04T06:33:16;1.60;99.90
13616;DHT22;6879;51.368;6.782;2022-12-04T06:35:45;1.50;99.90
13616;DHT22;6879;51.368;6.782;2022-12-04T06:38:15;1.60;99.90
13616;DHT22;6879;51.368;6.782;2022-12-04T06:40:47;1.70;99.90
13616;DHT22;6879;51.368;6.782;2022-12-04T06:43:18;1.70;99.90
13616;DHT22;6879;51.368;6.782;2022-12-04T06:45:57;1.60;99.90
13616;DHT22;6879;51.368;6.782;2022-12-04T06:48:28;1.70;99.90
13616;DHT22;6879;51.368;6.782;2022-12-04T06:50:59;1.70;99.90
13616;DHT22;6879;51.368;6.782;2022-12-04T06:53:33;1.80;99.90
13616;DHT22;6879;51.368;6.782;2022-12-04T06:56:08;1.80;99.90
13616;DHT22;6879;51.368;6.782;2022-12-04T06:58:39;1.90;99.90
13616;DHT22;6879;51.368;6.782;2022-12-04T07:01:16;1.90;99.90
13616;DHT22;6879;51.368;6.782;2022-12-04T07:03:47;1.90;99.90
13616;DHT22;6879;51.368;6.782;2022-12-04T07:06:32;1.80;99.90
13616;DHT22;6879;51.368;6.782;2022-12-04T07:09:10;1.80;99.90
13616;DHT22;6879;51.368;6.782;2022-12-04T07:11:47;1.90;99.90
13616;DHT22;6879;51.368;6.782;2022-12-04T07:14:18;1.80;99.90
13616;DHT22;6879;51.368;6.782;2022-12-04T07:16:51;1.90;99.90
13616;DHT22;6879;51.368;6.782;2022-12-04T07:19:28;1.90;99.90
13616;DHT22;6879;51.368;6.782;2022-12-04T07:22:03;1.90;99.90
13616;DHT22;6879;51.368;6.782;2022-12-04T07:24:38;1.80;99.90
13616;DHT22;6879;51.368;6.782;2022-12-04T07:27:09;1.90;99.90
13616;DHT22;6879;51.368;6.782;2022-12-04T07:29:50;1.90;99.90
13616;DHT22;6879;51.368;6.782;2022-12-04T07:32:23;2.00;99.90
13616;DHT22;6879;51.368;6.782;2022-12-04T07:34:55;1.90;99.90
13616;DHT22;6879;51.368;6.782;2022-12-04T07:37:27;2.00;99.90
13616;DHT22;6879;51.368;6.782;2022-12-04T07:39:57;2.00;99.90
13616;DHT22;6879;51.368;6.782;2022-12-04T07:42:33;1.90;99.90
13616;DHT22;6879;51.368;6.782;2022-12-04T07:45:05;1.90;99.90
13616;DHT22;6879;51.368;6.782;2022-12-04T07:47:37;1.90;99.90
13616;DHT22;6879;51.368;6.782;2022-12-04T07:50:07;1.90;99.90
13616;DHT22;6879;51.368;6.782;2022-12-04T07:52:36;1.90;99.90
13616;DHT22;6879;51.368;6.782;2022-12-04T07:55:06;1.90;99.90
13616;DHT22;6879;51.368;6.782;2022-12-04T07:57:36;2.00;99.90
13616;DHT22;6879;51.368;6.782;2022-12-04T08:00:06;2.00;99.90
13616;DHT22;6879;51.368;6.782;2022-12-04T08:02:37;2.00;99.90
13616;DHT22;6879;51.368;6.782;2022-12-04T08:05:07;1.90;99.90
13616;DHT22;6879;51.368;6.782;2022-12-04T08:07:36;2.00;99.90
13616;DHT22;6879;51.368;6.782;2022-12-04T08:10:06;2.00;99.90
13616;DHT22;6879;51.368;6.782;2022-12-04T08:12:39;2.00;99.90
13616;DHT22;6879;51.368;6.782;2022-12-04T08:15:09;2.00;99.90
13616;DHT22;6879;51.368;6.782;2022-12-04T08:17:40;2.00;99.90
13616;DHT22;6879;51.368;6.782;2022-12-04T08:20:11;2.00;99.90
13616;DHT22;6879;51.368;6.782;2022-12-04T08:22:40;2.00;99.90
13616;DHT22;6879;51.368;6.782;2022-12-04T08:25:09;1.90;99.90
13616;DHT22;6879;51.368;6.782;2022-12-04T08:27:40;1.90;99.90
13616;DHT22;6879;51.368;6.782;2022-12-04T08:30:14;1.90;99.90
13616;DHT22;6879;51.368;6.782;2022-12-04T08:32:46;2.00;99.90
13616;DHT22;6879;51.368;6.782;2022-12-04T08:35:20;1.90;99.90
13616;DHT22;6879;51.368;6.782;2022-12-04T08:37:49;2.00;99.90
13616;DHT22;6879;51.368;6.782;2022-12-04T08:40:22;1.90;99.90
13616;DHT22;6879;51.368;6.782;2022-12-04T08:42:56;2.00;99.90
13616;DHT22;6879;51.368;6.782;2022-12-04T08:45:27;2.00;99.90
13616;DHT22;6879;51.368;6.782;2022-12-04T08:48:00;2.10;99.90
13616;DHT22;6879;51.368;6.782;2022-12-04T08:50:29;2.10;99.90
13616;DHT22;6879;51.368;6.782;2022-12-04T08:53:01;2.10;99.90
13616;DHT22;6879;51.368;6.782;2022-12-04T08:55:31;2.10;99.90
13616;DHT22;6879;51.368;6.782;2022-12-04T08:58:07;2.10;99.90
13616;DHT22;6879;51.368;6.782;2022-12-04T09:00:40;2.20;99.90
13616;DHT22;6879;51.368;6.782;2022-12-04T09:03:16;2.20;99.90
13616;DHT22;6879;51.368;6.782;2022-12-04T09:05:58;2.20;99.90
13616;DHT22;6879;51.368;6.782;2022-12-04T09:08:31;2.20;99.90
13616;DHT22;6879;51.368;6.782;2022-12-04T09:11:02;2.20;99.90
13616;DHT22;6879;51.368;6.782;2022-12-04T09:13:36;2.20;99.90
13616;DHT22;6879;51.368;6.782;2022-12-04T09:16:12;2.30;99.90
13616;DHT22;6879;51.368;6.782;2022-12-04T09:18:43;2.40;99.90
13616;DHT22;6879;51.368;6.782;2022-12-04T09:21:16;2.30;99.90
13616;DHT22;6879;51.368;6.782;2022-12-04T09:23:52;2.30;99.90
13616;DHT22;6879;51.368;6.782;2022-12-04T09:26:26;2.30;99.90
13616;DHT22;6879;51.368;6.782;2022-12-04T09:29:13;2.30;99.90
13616;DHT22;6879;51.368;6.782;2022-12-04T09:31:46;2.40;99.90
13616;DHT22;6879;51.368;6.782;2022-12-04T09:34:20;2.40;99.90
13616;DHT22;6879;51.368;6.782;2022-12-04T09:36:49;2.40;99.90
13616;DHT22;6879;51.368;6.782;2022-12-04T09:39:20;2.30;99.90
13616;DHT22;6879;51.368;6.782;2022-12-04T09:42:30;2.40;99.90
13616;DHT22;6879;51.368;6.782;2022-12-04T09:45:09;2.40;99.90
13616;DHT22;6879;51.368;6.782;2022-12-04T09:47:43;2.50;99.90
13616;DHT22;6879;51.368;6.782;2022-12-04T09:50:17;2.50;99.90
13616;DHT22;6879;51.368;6.782;2022-12-04T10:08:18;2.50;99.90
13616;DHT22;6879;51.368;6.782;2022-12-04T10:10:56;2.50;99.90
13616;DHT22;6879;51.368;6.782;2022-12-04T10:13:58;2.60;99.90
13616;DHT22;6879;51.368;6.782;2022-12-04T10:16:42;2.60;99.90
13616;DHT22;6879;51.368;6.782;2022-12-04T10:19:19;2.60;99.90
13616;DHT22;6879;51.368;6.782;2022-12-04T10:22:02;2.70;99.90
13616;DHT22;6879;51.368;6.782;2022-12-04T10:24:42;2.70;99.90
13616;DHT22;6879;51.368;6.782;2022-12-04T10:27:20;2.70;99.90
13616;DHT22;6879;51.368;6.782;2022-12-04T10:29:55;2.80;99.90
13616;DHT22;6879;51.368;6.782;2022-12-04T10:32:30;2.90;99.90
13616;DHT22;6879;51.368;6.782;2022-12-04T10:35:09;2.90;99.90
13616;DHT22;6879;51.368;6.782;2022-12-04T10:37:43;2.90;99.90
13616;DHT22;6879;51.368;6.782;2022-12-04T10:40:18;2.80;99.90
13616;DHT22;6879;51.368;6.782;2022-12-04T10:42:54;2.80;99.90
13616;DHT22;6879;51.368;6.782;2022-12-04T10:45:25;2.80;99.90
13616;DHT22;6879;51.368;6.782;2022-12-04T10:47:54;2.90;99.90
13616;DHT22;6879;51.368;6.782;2022-12-04T10:50:24;2.80;99.90
13616;DHT22;6879;51.368;6.782;2022-12-04T10:52:55;2.80;99.90
13616;DHT22;6879;51.368;6.782;2022-12-04T10:55:31;2.90;99.90
13616;DHT22;6879;51.368;6.782;2022-12-04T10:58:00;2.90;99.90
13616;DHT22;6879;51.368;6.782;2022-12-04T11:00:32;2.90;99.90
13616;DHT22;6879;51.368;6.782;2022-12-04T11:03:08;2.90;99.90
13616;DHT22;6879;51.368;6.782;2022-12-04T11:05:43;3.00;99.90
13616;DHT22;6879;51.368;6.782;2022-12-04T11:08:22;3.00;99.90
13616;DHT22;6879;51.368;6.782;2022-12-04T11:11:00;3.00;99.90
13616;DHT22;6879;51.368;6.782;2022-12-04T11:13:30;3.00;99.90
13616;DHT22;6879;51.368;6.782;2022-12-04T11:16:01;3.10;99.90
13616;DHT22;6879;51.368;6.782;2022-12-04T11:18:31;3.00;99.90
13616;DHT22;6879;51.368;6.782;2022-12-04T11:21:04;3.00;99.90
13616;DHT22;6879;51.368;6.782;2022-12-04T11:23:40;3.00;99.90
13616;DHT22;6879;51.368;6.782;2022-12-04T11:26:12;3.00;99.90
13616;DHT22;6879;51.368;6.782;2022-12-04T11:28:46;3.10;99.90
13616;DHT22;6879;51.368;6.782;2022-12-04T11:36:55;3.10;99.90
13616;DHT22;6879;51.368;6.782;2022-12-04T11:39:28;3.20;99.90
13616;DHT22;6879;51.368;6.782;2022-12-04T11:42:02;3.10;99.90
13616;DHT22;6879;51.368;6.782;2022-12-04T11:44:34;3.10;99.90
13616;DHT22;6879;51.368;6.782;2022-12-04T11:47:05;3.10;99.90
13616;DHT22;6879;51.368;6.782;2022-12-04T11:49:57;3.00;99.90
13616;DHT22;6879;51.368;6.782;2022-12-04T11:52:40;3.10;99.90
13616;DHT22;6879;51.368;6.782;2022-12-04T11:55:19;3.10;99.90
13616;DHT22;6879;51.368;6.782;2022-12-04T11:58:09;3.10;99.90
13616;DHT22;6879;51.368;6.782;2022-12-04T12:00:47;3.10;99.90
13616;DHT22;6879;51.368;6.782;2022-12-04T12:03:22;3.00;99.90
13616;DHT22;6879;51.368;6.782;2022-12-04T12:06:15;3.00;99.90
13616;DHT22;6879;51.368;6.782;2022-12-04T12:09:02;3.00;99.90
13616;DHT22;6879;51.368;6.782;2022-12-04T12:11:41;3.00;99.90
13616;DHT22;6879;51.368;6.782;2022-12-04T12:14:18;3.20;99.90
13616;DHT22;6879;51.368;6.782;2022-12-04T12:17:07;3.10;99.90
13616;DHT22;6879;51.368;6.782;2022-12-04T12:22:55;3.10;99.90
13616;DHT22;6879;51.368;6.782;2022-12-04T12:25:31;3.10;99.90
13616;DHT22;6879;51.368;6.782;2022-12-04T12:28:13;3.20;99.90
13616;DHT22;6879;51.368;6.782;2022-12-04T12:30:59;3.10;99.90
13616;DHT22;6879;51.368;6.782;2022-12-04T12:33:35;3.10;99.90
13616;DHT22;6879;51.368;6.782;2022-12-04T12:36:07;3.20;99.90
13616;DHT22;6879;51.368;6.782;2022-12-04T12:38:41;3.20;99.90
13616;DHT22;6879;51.368;6.782;2022-12-04T12:41:13;3.20;99.90
13616;DHT22;6879;51.368;6.782;2022-12-04T12:43:47;3.20;99.90
13616;DHT22;6879;51.368;6.782;2022-12-04T12:46:22;3.20;99.90
13616;DHT22;6879;51.368;6.782;2022-12-04T12:49:00;3.20;99.90
13616;DHT22;6879;51.368;6.782;2022-12-04T12:51:34;3.20;99.90
13616;DHT22;6879;51.368;6.782;2022-12-04T12:54:13;3.30;99.90
13616;DHT22;6879;51.368;6.782;2022-12-04T12:56:48;3.30;99.90
13616;DHT22;6879;51.368;6.782;2022-12-04T12:59:20;3.40;99.90
13616;DHT22;6879;51.368;6.782;2022-12-04T13:01:55;3.40;99.90
13616;DHT22;6879;51.368;6.782;2022-12-04T13:04:33;3.40;99.90
13616;DHT22;6879;51.368;6.782;2022-12-04T13:07:19;3.30;99.90
13616;DHT22;6879;51.368;6.782;2022-12-04T13:10:01;3.30;99.90
13616;DHT22;6879;51.368;6.782;2022-12-04T13:12:44;3.30;99.90
13616;DHT22;6879;51.368;6.782;2022-12-04T13:15:19;3.30;99.90
13616;DHT22;6879;51.368;6.782;2022-12-04T13:17:56;3.20;99.90
13616;DHT22;6879;51.368;6.782;2022-12-04T13:20:29;3.20;99.90
13616;DHT22;6879;51.368;6.782;2022-12-04T13:23:14;3.30;99.90
13616;DHT22;6879;51.368;6.782;2022-12-04T13:29:00;3.30;99.90
13616;DHT22;6879;51.368;6.782;2022-12-04T13:32:37;3.30;99.90
13616;DHT22;6879;51.368;6.782;2022-12-04T17:49:42;3.60;99.90
13616;DHT22;6879;51.368;6.782;2022-12-04T17:52:10;3.60;99.90
13616;DHT22;6879;51.368;6.782;2022-12-04T17:54:39;3.60;99.90
13616;DHT22;6879;51.368;6.782;2022-12-04T17:57:08;3.50;99.90
13616;DHT22;6879;51.368;6.782;2022-12-04T17:59:37;3.60;99.90
13616;DHT22;6879;51.368;6.782;2022-12-04T18:02:08;3.60;99.90
13616;DHT22;6879;51.368;6.782;2022-12-04T18:04:36;3.50;99.90
13616;DHT22;6879;51.368;6.782;2022-12-04T18:07:09;3.60;99.90
13616;DHT22;6879;51.368;6.782;2022-12-04T18:09:38;3.60;99.90
13616;DHT22;6879;51.368;6.782;2022-12-04T18:12:11;3.50;99.90
13616;DHT22;6879;51.368;6.782;2022-12-04T18:14:40;3.50;99.90
13616;DHT22;6879;51.368;6.782;2022-12-04T18:17:10;3.50;99.90
13616;DHT22;6879;51.368;6.782;2022-12-04T18:19:38;3.60;99.90
13616;DHT22;6879;51.368;6.782;2022-12-04T18:22:09;3.60;99.90
13616;DHT22;6879;51.368;6.782;2022-12-04T18:24:38;3.60;99.90
13616;DHT22;6879;51.368;6.782;2022-12-04T18:27:20;3.60;99.90
13616;DHT22;6879;51.368;6.782;2022-12-04T18:29:48;3.60;99.90
13616;DHT22;6879;51.368;6.782;2022-12-04T18:32:17;3.60;99.90
13616;DHT22;6879;51.368;6.782;2022-12-04T18:34:46;3.60;99.90
13616;DHT22;6879;51.368;6.782;2022-12-04T18:37:16;3.60;99.90
13616;DHT22;6879;51.368;6.782;2022-12-04T18:39:44;3.60;99.90
13616;DHT22;6879;51.368;6.782;2022-12-04T18:42:15;3.60;99.90
13616;DHT22;6879;51.368;6.782;2022-12-04T18:44:47;3.70;99.90
13616;DHT22;6879;51.368;6.782;2022-12-04T18:47:17;3.60;99.90
13616;DHT22;6879;51.368;6.782;2022-12-04T18:49:47;3.60;99.90
13616;DHT22;6879;51.368;6.782;2022-12-04T18:52:16;3.60;99.90
13616;DHT22;6879;51.368;6.782;2022-12-04T18:54:44;3.60;99.90
13616;DHT22;6879;51.368;6.782;2022-12-04T18:57:15;3.60;99.90
13616;DHT22;6879;51.368;6.782;2022-12-04T18:59:44;3.60;99.90
13616;DHT22;6879;51.368;6.782;2022-12-04T19:02:15;3.50;99.90
13616;DHT22;6879;51.368;6.782;2022-12-04T19:04:44;3.50;99.90
13616;DHT22;6879;51.368;6.782;2022-12-04T19:07:12;3.50;99.90
13616;DHT22;6879;51.368;6.782;2022-12-04T19:09:41;3.60;99.90
13616;DHT22;6879;51.368;6.782;2022-12-04T19:12:31;3.50;99.90
13616;DHT22;6879;51.368;6.782;2022-12-04T19:14:59;3.50;99.90
13616;DHT22;6879;51.368;6.782;2022-12-04T19:17:30;3.50;99.90
13616;DHT22;6879;51.368;6.782;2022-12-04T19:19:59;3.50;99.90
13616;DHT22;6879;51.368;6.782;2022-12-04T19:22:28;3.50;99.90
13616;DHT22;6879;51.368;6.782;2022-12-04T19:24:57;3.60;99.90
13616;DHT22;6879;51.368;6.782;2022-12-04T19:27:26;3.60;99.90
13616;DHT22;6879;51.368;6.782;2022-12-04T19:29:55;3.60;99.90
13616;DHT22;6879;51.368;6.782;2022-12-04T19:32:24;3.50;99.90
13616;DHT22;6879;51.368;6.782;2022-12-04T19:34:55;3.50;99.90
13616;DHT22;6879;51.368;6.782;2022-12-04T19:37:24;3.50;99.90
13616;DHT22;6879;51.368;6.782;2022-12-04T19:39:53;3.50;99.90
13616;DHT22;6879;51.368;6.782;2022-12-04T19:42:22;3.50;99.90
13616;DHT22;6879;51.368;6.782;2022-12-04T19:44:51;3.40;99.90
13616;DHT22;6879;51.368;6.782;2022-12-04T19:47:20;3.40;99.90
13616;DHT22;6879;51.368;6.782;2022-12-04T19:49:49;3.40;99.90
13616;DHT22;6879;51.368;6.782;2022-12-04T19:52:19;3.40;99.90
13616;DHT22;6879;51.368;6.782;2022-12-04T19:54:48;3.40;99.90
13616;DHT22;6879;51.368;6.782;2022-12-04T19:57:24;3.40;99.90
13616;DHT22;6879;51.368;6.782;2022-12-04T19:59:53;3.40;99.90
13616;DHT22;6879;51.368;6.782;2022-12-04T20:02:22;3.40;99.90
13616;DHT22;6879;51.368;6.782;2022-12-04T20:04:51;3.40;99.90
13616;DHT22;6879;51.368;6.782;2022-12-04T20:07:22;3.30;99.90
13616;DHT22;6879;51.368;6.782;2022-12-04T20:09:53;3.40;99.90
13616;DHT22;6879;51.368;6.782;2022-12-04T20:12:22;3.40;99.90
13616;DHT22;6879;51.368;6.782;2022-12-04T20:14:51;3.40;99.90
13616;DHT22;6879;51.368;6.782;2022-12-04T20:17:21;3.40;99.90
13616;DHT22;6879;51.368;6.782;2022-12-04T20:19:52;3.40;99.90
13616;DHT22;6879;51.368;6.782;2022-12-04T20:22:29;3.40;99.90
13616;DHT22;6879;51.368;6.782;2022-12-04T20:24:58;3.20;99.90
13616;DHT22;6879;51.368;6.782;2022-12-04T20:27:27;3.20;99.90
13616;DHT22;6879;51.368;6.782;2022-12-04T20:29:57;3.20;99.90
13616;DHT22;6879;51.368;6.782;2022-12-04T20:32:26;3.20;99.90
13616;DHT22;6879;51.368;6.782;2022-12-04T20:34:57;3.20;99.90
13616;DHT22;6879;51.368;6.782;2022-12-04T20:37:31;3.20;99.90
13616;DHT22;6879;51.368;6.782;2022-12-04T20:40:05;3.30;99.90
13616;DHT22;6879;51.368;6.782;2022-12-04T20:42:35;3.30;99.90
13616;DHT22;6879;51.368;6.782;2022-12-04T20:45:05;3.30;99.90
13616;DHT22;6879;51.368;6.782;2022-12-04T20:47:34;3.20;99.90
13616;DHT22;6879;51.368;6.782;2022-12-04T20:50:05;3.30;99.90
13616;DHT22;6879;51.368;6.782;2022-12-04T20:52:38;3.30;99.90
13616;DHT22;6879;51.368;6.782;2022-12-04T20:55:08;3.30;99.90
13616;DHT22;6879;51.368;6.782;2022-12-04T20:57:36;3.40;99.90
13616;DHT22;6879;51.368;6.782;2022-12-04T21:00:06;3.30;99.90
13616;DHT22;6879;51.368;6.782;2022-12-04T21:02:35;3.30;99.90
13616;DHT22;6879;51.368;6.782;2022-12-04T21:05:04;3.30;99.90
13616;DHT22;6879;51.368;6.782;2022-12-04T21:07:33;3.20;99.90
13616;DHT22;6879;51.368;6.782;2022-12-04T21:10:04;3.20;99.90
13616;DHT22;6879;51.368;6.782;2022-12-04T21:12:33;3.30;99.90
13616;DHT22;6879;51.368;6.782;2022-12-04T21:15:19;3.30;99.90
13616;DHT22;6879;51.368;6.782;2022-12-04T21:18:05;3.30;99.90
13616;DHT22;6879;51.368;6.782;2022-12-04T21:20:33;3.30;99.90
13616;DHT22;6879;51.368;6.782;2022-12-04T21:23:02;3.20;99.90
13616;DHT22;6879;51.368;6.782;2022-12-04T21:25:32;3.20;99.90
13616;DHT22;6879;51.368;6.782;2022-12-04T21:28:00;3.20;99.90
13616;DHT22;6879;51.368;6.782;2022-12-04T21:30:29;3.20;99.90
13616;DHT22;6879;51.368;6.782;2022-12-04T21:32:59;3.20;99.90